createdAt,value
2022-10-13T00:04:28.930Z,5.25
2022-10-13T00:09:33.426Z,4.71
2022-10-13T00:14:38.638Z,5.30
2022-10-13T00:19:42.422Z,4.24
2022-10-13T00:24:52.071Z,4.67
2022-10-13T00:29:57.221Z,4.71
2022-10-13T00:35:01.005Z,4.45
2022-10-13T00:40:06.142Z,3.93
2022-10-13T00:45:22.310Z,5.14
2022-10-13T00:50:31.080Z,4.97
2022-10-13T00:55:37.923Z,4.65
2022-10-13T01:00:46.259Z,4.92
2022-10-13T01:05:54.833Z,4.88
2022-10-13T01:11:13.398Z,4.88
2022-10-13T01:16:30.783Z,5.38
2022-10-13T01:21:42.301Z,4.24
2022-10-13T01:27:11.554Z,3.85
2022-10-13T01:32:25.441Z,4.65
2022-10-13T01:37:37.466Z,4.27
2022-10-13T01:42:48.167Z,3.88
2022-10-13T01:47:54.431Z,3.98
2022-10-13T01:53:02.088Z,3.84
2022-10-13T01:58:05.909Z,4.57
2022-10-13T02:03:18.859Z,4.60
2022-10-13T02:08:29.644Z,5.10
2022-10-13T02:13:38.131Z,4.92
2022-10-13T02:18:47.460Z,4.39
2022-10-13T02:23:51.693Z,4.23
2022-10-13T02:28:57.507Z,4.82
2022-10-13T02:34:02.866Z,4.19
2022-10-13T02:39:07.520Z,4.28
2022-10-13T02:44:11.659Z,4.53
2022-10-13T02:49:19.957Z,4.00
2022-10-13T02:54:23.753Z,4.43
2022-10-13T02:59:27.551Z,4.93
2022-10-13T03:04:33.111Z,4.91
2022-10-13T03:09:40.077Z,4.99
2022-10-13T03:14:44.161Z,5.08
2022-10-13T03:19:49.390Z,4.86
2022-10-13T03:24:55.370Z,4.25
2022-10-13T03:29:59.079Z,5.01
2022-10-13T03:35:06.493Z,4.55
2022-10-13T03:40:11.302Z,4.04
2022-10-13T03:45:15.100Z,4.19
2022-10-13T03:50:20.462Z,4.59
2022-10-13T03:55:25.255Z,5.05
2022-10-13T04:00:29.158Z,4.78
2022-10-13T04:05:36.406Z,4.72
2022-10-13T04:10:40.305Z,5.28
2022-10-13T04:15:44.196Z,5.24
2022-10-13T04:20:49.404Z,4.60
2022-10-13T04:25:53.134Z,4.42
2022-10-13T04:30:57.035Z,3.88
2022-10-13T04:36:05.329Z,4.32
2022-10-13T04:41:11.169Z,4.56
2022-10-13T04:46:17.959Z,4.58
2022-10-13T04:51:25.321Z,4.99
2022-10-13T04:56:29.774Z,5.16
2022-10-13T05:01:38.134Z,4.39
2022-10-13T05:07:12.642Z,4.35
2022-10-13T05:12:10.748Z,4.55
2022-10-13T05:17:14.510Z,5.20
2022-10-13T05:22:20.021Z,5.20
2022-10-13T05:27:24.282Z,5.75
2022-10-13T05:32:28.153Z,6.02
2022-10-13T05:37:33.770Z,5.88
2022-10-13T05:42:38.320Z,5.74
2022-10-13T05:47:42.242Z,5.41
2022-10-13T05:52:47.894Z,5.25
2022-10-13T05:57:53.327Z,5.77
2022-10-13T06:03:04.840Z,5.35
2022-10-13T06:14:17.427Z,6.22
2022-10-13T06:20:33.761Z,6.51
2022-10-13T06:26:59.148Z,6.82
2022-10-13T06:32:49.305Z,6.27
2022-10-13T06:59:18.067Z,8.72
2022-10-13T07:11:56.831Z,9.12
2022-10-13T07:24:45.199Z,9.44
2022-10-13T07:30:47.667Z,9.60
2022-10-13T07:50:18.596Z,10.85
2022-10-13T07:56:29.088Z,11.03
2022-10-13T08:08:50.733Z,10.91
2022-10-13T08:15:18.777Z,11.75
2022-10-13T08:22:02.572Z,12.17
2022-10-13T08:28:15.647Z,11.47
2022-10-13T08:33:57.144Z,12.69
2022-10-13T08:39:14.161Z,12.43
2022-10-13T08:45:22.276Z,11.67
2022-10-13T08:51:06.868Z,12.56
2022-10-13T08:56:46.530Z,12.80
2022-10-13T09:03:01.512Z,13.12
2022-10-13T09:08:54.266Z,13.30
2022-10-13T09:14:10.490Z,14.05
2022-10-13T09:19:50.953Z,13.16
2022-10-13T09:25:37.168Z,12.92
2022-10-13T09:31:40.971Z,13.81
2022-10-13T09:37:42.460Z,13.11
2022-10-13T09:43:43.582Z,13.24
2022-10-13T09:49:26.712Z,13.79
2022-10-13T09:55:01.592Z,13.95
2022-10-13T10:00:21.891Z,14.29
2022-10-13T10:05:55.841Z,14.81
2022-10-13T10:11:17.175Z,14.12
2022-10-13T10:16:38.568Z,14.50
2022-10-13T10:22:04.394Z,15.89
2022-10-13T10:27:33.692Z,14.68
2022-10-13T10:32:57.940Z,14.63
2022-10-13T10:38:38.407Z,15.61
2022-10-13T10:44:00.927Z,14.48
2022-10-13T10:49:28.972Z,13.90
2022-10-13T10:55:00.103Z,15.21
2022-10-13T11:00:19.237Z,14.64
2022-10-13T11:05:37.171Z,14.99
2022-10-13T11:10:56.486Z,16.27
2022-10-13T11:16:37.919Z,16.68
2022-10-13T11:22:14.997Z,15.78
2022-10-13T11:27:44.554Z,16.14
2022-10-13T11:32:57.572Z,17.25
2022-10-13T11:38:24.429Z,18.17
2022-10-13T11:44:02.634Z,20.06
2022-10-13T11:49:48.321Z,20.42
2022-10-13T11:55:23.355Z,21.68
2022-10-13T12:00:40.925Z,20.49
2022-10-13T12:06:07.908Z,20.08
2022-10-13T12:11:36.924Z,22.29
2022-10-13T12:17:24.135Z,23.17
2022-10-13T12:22:44.973Z,23.19
2022-10-13T12:28:11.592Z,22.71
2022-10-13T12:33:53.155Z,23.44
2022-10-13T12:39:25.590Z,22.57
2022-10-13T12:44:55.368Z,22.64
2022-10-13T12:50:45.561Z,21.21
2022-10-13T12:56:08.818Z,22.05
2022-10-13T13:01:52.900Z,22.16
2022-10-13T13:07:32.769Z,21.17
2022-10-13T13:12:45.063Z,21.96
2022-10-13T13:32:47.011Z,21.05
2022-10-13T13:38:13.147Z,21.63
2022-10-13T13:44:14.691Z,20.53
2022-10-13T13:49:57.348Z,19.58
2022-10-13T13:55:31.408Z,19.12
2022-10-13T14:01:14.795Z,19.54
2022-10-13T14:07:25.836Z,19.67
2022-10-13T14:13:11.411Z,19.27
2022-10-13T14:18:55.785Z,20.07
2022-10-13T14:26:37.334Z,20.48
2022-10-13T14:31:46.181Z,19.86
2022-10-13T14:38:01.789Z,20.18
2022-10-13T14:43:56.229Z,20.03
2022-10-13T14:49:51.886Z,20.30
2022-10-13T15:01:45.324Z,19.70
2022-10-13T15:08:34.037Z,19.47
2022-10-13T15:14:28.785Z,18.66
2022-10-13T15:20:50.745Z,18.34
2022-10-13T15:26:17.906Z,18.04
2022-10-13T15:31:39.548Z,17.69
2022-10-13T15:36:48.992Z,17.12
2022-10-13T15:42:03.153Z,16.76
2022-10-13T15:47:08.299Z,16.35
2022-10-13T15:52:14.847Z,15.94
2022-10-13T15:57:24.589Z,15.07
2022-10-13T16:02:32.282Z,14.64
2022-10-13T16:07:42.573Z,14.58
2022-10-13T16:12:54.053Z,13.23
2022-10-13T16:18:01.362Z,11.99
2022-10-13T16:23:07.083Z,11.30
2022-10-13T16:28:11.015Z,10.69
2022-10-13T16:33:15.690Z,10.58
2022-10-13T16:38:21.005Z,10.69
2022-10-13T16:43:25.283Z,10.93
2022-10-13T16:48:36.665Z,10.03
2022-10-13T16:53:42.080Z,9.33
2022-10-13T16:58:46.075Z,9.68
2022-10-13T17:03:51.256Z,8.61
2022-10-13T17:08:57.856Z,8.71
2022-10-13T17:14:02.661Z,8.08
2022-10-13T17:19:11.796Z,8.18
2022-10-13T17:24:21.052Z,7.86
2022-10-13T17:29:25.295Z,7.92
2022-10-13T17:34:30.839Z,8.40
2022-10-13T17:39:37.903Z,9.51
2022-10-13T17:44:42.800Z,9.95
2022-10-13T17:55:44.909Z,8.63
2022-10-13T18:01:12.445Z,8.40
2022-10-13T18:06:23.705Z,8.43
2022-10-13T18:11:33.789Z,8.40
2022-10-13T18:16:43.823Z,7.34
2022-10-13T18:21:54.453Z,7.46
2022-10-13T18:27:10.319Z,8.81
2022-10-13T18:32:20.476Z,9.15
2022-10-13T18:37:27.107Z,9.42
2022-10-13T18:42:37.901Z,8.48
2022-10-13T18:47:52.881Z,8.08
2022-10-13T18:53:07.603Z,7.83
2022-10-13T18:58:58.425Z,8.46
2022-10-13T19:04:27.405Z,8.50
2022-10-13T19:09:37.872Z,7.00
2022-10-13T19:14:46.087Z,7.74
2022-10-13T19:19:56.768Z,7.07
2022-10-13T19:25:06.654Z,7.49
2022-10-13T19:30:47.270Z,7.90
2022-10-13T19:35:55.876Z,7.89
2022-10-13T19:41:04.790Z,7.86
2022-10-13T19:46:10.440Z,8.05
2022-10-13T19:51:16.041Z,8.03
2022-10-13T19:56:22.482Z,7.85
2022-10-13T20:01:29.760Z,8.16
2022-10-13T20:06:37.894Z,8.23
2022-10-13T20:11:42.680Z,8.03
2022-10-13T20:16:47.265Z,8.19
2022-10-13T20:21:54.509Z,8.64
2022-10-13T20:26:58.500Z,8.34
2022-10-13T20:32:04.495Z,8.00
2022-10-13T20:37:16.690Z,8.57
2022-10-13T20:42:20.763Z,9.24
2022-10-13T20:47:27.341Z,9.85
2022-10-13T20:52:37.811Z,9.34
2022-10-13T20:57:41.871Z,8.70
2022-10-13T21:02:47.466Z,9.23
2022-10-13T21:07:52.866Z,9.73
2022-10-13T21:12:56.753Z,9.69
2022-10-13T21:18:02.613Z,8.83
2022-10-13T21:23:08.881Z,8.64
2022-10-13T21:28:13.431Z,8.66
2022-10-13T21:33:17.812Z,9.17
2022-10-13T21:38:23.258Z,9.91
2022-10-13T21:43:27.326Z,8.64
2022-10-13T21:48:31.308Z,9.02
2022-10-13T21:53:36.946Z,9.20
2022-10-13T21:58:41.118Z,9.46
2022-10-13T22:03:47.149Z,9.70
2022-10-13T22:08:56.962Z,9.58
2022-10-13T22:14:01.471Z,8.96
2022-10-13T22:19:05.601Z,8.89
2022-10-13T22:24:15.322Z,9.00
2022-10-13T22:29:24.285Z,8.65
2022-10-13T22:34:29.106Z,8.39
2022-10-13T22:39:35.073Z,7.97
2022-10-13T22:44:48.338Z,8.76
2022-10-13T22:49:52.781Z,8.37
2022-10-13T22:54:58.526Z,8.83
2022-10-13T23:00:05.403Z,8.38
2022-10-13T23:05:10.164Z,8.31
2022-10-13T23:10:16.190Z,8.77
2022-10-13T23:15:20.316Z,8.99
2022-10-13T23:20:26.138Z,8.00
2022-10-13T23:25:32.507Z,9.33
2022-10-13T23:30:36.624Z,9.36
2022-10-13T23:35:41.034Z,8.51
2022-10-13T23:40:47.860Z,7.90
2022-10-13T23:45:53.025Z,7.61
2022-10-13T23:50:57.442Z,7.12
2022-10-13T23:56:03.883Z,7.57
